»·PEaware :: N22AB KLAX-KSAN

N22AB :: KLAX-KSAN

FLIGHT INFORMATION

Flight Status: Arrived
Operator: Privately registered:
United States
More flights under this callsign
Pilot: Andrew B. (6114)
Aircraft: CESSNA 172 SKYHAWK
(C172)
More flights by this aircraft type
Origin: KLAX Los Angeles Intl
United States
Destination: KSAN San Diego Intl-Lindbergh
United States
More flights between these airports :: More routes between these airports
Route: +VPLDP VPSPP
File this flight plan on PilotEdge
Remarks: CAT 11
Altitude:
(Current/Filed)
75ft
Speed:
(Current/Filed)
105kts
Departed: 02-Jan-18 04:54 PM
Arrived: 02-Jan-18 05:59 PM
Distance/Time
Traveled:
95nm/1:05
Distance/Time
To Go:
Arrived

Flight Plot

Page will automatically refresh every two minutes.

Flight plan parsing failed; only flown route is shown


Map Options




Map Legend


Flown Route
Filed Route
Departure Airport
Arrival Airport
Navaid (VOR, NDB)
Fix

Horizontal Profiles

Position Reports

Time Latitude Longitude Heading Altitude Ground
Speed
02-Jan-18 16:43 33.940980 -118.392229 169 129ft 0kts
02-Jan-18 16:44 33.940979 -118.392229 169 129ft 0kts
02-Jan-18 16:45 33.940978 -118.392229 169 129ft 0kts
02-Jan-18 16:46 33.940977 -118.392229 169 129ft 0kts
02-Jan-18 16:47 33.940976 -118.392229 169 129ft 0kts
02-Jan-18 16:48 33.940975 -118.392228 169 129ft 0kts
02-Jan-18 16:49 33.940975 -118.392228 169 129ft 0kts
02-Jan-18 16:50 33.940974 -118.392228 170 129ft 0kts
02-Jan-18 16:51 33.940973 -118.392228 170 129ft 0kts
02-Jan-18 16:52 33.940972 -118.392228 170 129ft 0kts
02-Jan-18 16:53 33.940971 -118.392227 170 129ft 0kts
02-Jan-18 16:54 33.940970 -118.392227 170 129ft 0kts
02-Jan-18 16:55 33.939737 -118.390829 76 129ft 15kts
02-Jan-18 16:56 33.940341 -118.385000 83 129ft 22kts
02-Jan-18 16:57 33.940620 -118.380513 107 129ft 0kts
02-Jan-18 16:58 33.940619 -118.380512 107 129ft 0kts
02-Jan-18 16:59 33.940121 -118.380119 179 129ft 14kts
02-Jan-18 17:00 33.938326 -118.393703 265 521ft 61kts
02-Jan-18 17:01 33.935324 -118.415020 261 1320ft 65kts
02-Jan-18 17:02 33.929360 -118.436710 265 2006ft 75kts
02-Jan-18 17:03 33.925719 -118.466756 262 2354ft 108kts
02-Jan-18 17:04 33.912970 -118.495754 175 2648ft 112kts
02-Jan-18 17:05 33.881653 -118.491027 172 2982ft 114kts
02-Jan-18 17:06 33.847843 -118.486150 172 2998ft 127kts
02-Jan-18 17:07 33.812316 -118.481028 172 2994ft 128kts
02-Jan-18 17:08 33.776918 -118.475909 172 2989ft 124kts
02-Jan-18 17:09 33.743707 -118.471100 172 2994ft 119kts
02-Jan-18 17:10 33.711933 -118.464370 140 3300ft 104kts
02-Jan-18 17:11 33.690678 -118.443214 132 3852ft 97kts
02-Jan-18 17:12 33.681131 -118.414216 106 4332ft 95kts
02-Jan-18 17:13 33.672134 -118.384534 108 4783ft 95kts
02-Jan-18 17:14 33.663015 -118.355301 109 5243ft 92kts
02-Jan-18 17:15 33.653697 -118.325486 109 5530ft 103kts
02-Jan-18 17:16 33.642893 -118.291027 110 5513ft 113kts
02-Jan-18 17:17 33.631768 -118.255525 110 5508ft 112kts
02-Jan-18 17:18 33.620913 -118.220890 109 5513ft 110kts
02-Jan-18 17:19 33.610116 -118.186493 109 5512ft 110kts
02-Jan-18 17:20 33.599306 -118.152092 109 5511ft 110kts
02-Jan-18 17:21 33.588401 -118.117430 110 5507ft 111kts
02-Jan-18 17:22 33.577483 -118.082765 110 5507ft 111kts
02-Jan-18 17:23 33.566526 -118.048019 110 5505ft 111kts
02-Jan-18 17:24 33.555590 -118.013376 110 5503ft 111kts
02-Jan-18 17:25 33.544628 -117.978694 109 5526ft 110kts
02-Jan-18 17:26 33.534875 -117.947784 109 5995ft 93kts
02-Jan-18 17:27 33.525660 -117.918657 110 6373ft 92kts
02-Jan-18 17:28 33.516438 -117.889560 110 6713ft 94kts
02-Jan-18 17:29 33.507012 -117.859864 110 7016ft 95kts
02-Jan-18 17:30 33.497563 -117.830111 110 7314ft 95kts
02-Jan-18 17:31 33.487950 -117.799878 110 7513ft 102kts
02-Jan-18 17:32 33.477313 -117.766520 110 7504ft 110kts
02-Jan-18 17:33 33.468172 -117.737836 110 7501ft 111kts
02-Jan-18 17:34 33.449462 -117.701729 133 7505ft 111kts
02-Jan-18 17:35 33.427239 -117.675695 133 7503ft 112kts
02-Jan-18 17:36 33.408732 -117.653961 133 7502ft 112kts
02-Jan-18 17:37 33.386397 -117.627746 133 7499ft 112kts
02-Jan-18 17:38 33.360398 -117.597254 133 7499ft 112kts
02-Jan-18 17:39 33.338086 -117.571106 133 7499ft 112kts
02-Jan-18 17:40 33.319519 -117.549365 133 7499ft 112kts
02-Jan-18 17:41 33.293548 -117.518974 133 7498ft 111kts
02-Jan-18 17:42 33.274966 -117.497245 133 7497ft 111kts
02-Jan-18 17:43 33.252754 -117.471291 133 7497ft 111kts
02-Jan-18 17:44 33.230443 -117.445240 133 7495ft 111kts
02-Jan-18 17:45 33.208160 -117.419240 133 7478ft 113kts
02-Jan-18 17:46 33.185620 -117.392975 133 6995ft 113kts
02-Jan-18 17:47 33.162914 -117.366522 133 6495ft 114kts
02-Jan-18 17:48 33.140076 -117.340038 136 5997ft 116kts
02-Jan-18 17:49 33.109012 -117.326883 159 5523ft 122kts
02-Jan-18 17:50 33.077531 -117.315336 159 5486ft 115kts
02-Jan-18 17:51 33.047108 -117.304162 159 5488ft 114kts
02-Jan-18 17:52 33.016631 -117.292990 159 5488ft 114kts
02-Jan-18 17:53 32.985504 -117.281593 160 5130ft 121kts
02-Jan-18 17:54 32.953100 -117.269758 160 4532ft 122kts
02-Jan-18 17:55 32.920164 -117.257715 161 3970ft 126kts
02-Jan-18 17:56 32.885350 -117.245030 161 3492ft 129kts
02-Jan-18 17:57 32.851822 -117.232772 161 3478ft 120kts
02-Jan-18 17:58 32.820019 -117.221133 161 3486ft 118kts
02-Jan-18 17:59 32.788416 -117.209491 160 3499ft 122kts
02-Jan-18 18:00 32.765271 -117.188921 100 3363ft 89kts
02-Jan-18 18:01 32.760333 -117.161158 92 2751ft 75kts
02-Jan-18 18:02 32.746164 -117.144941 195 1770ft 83kts
02-Jan-18 18:03 32.727811 -117.154227 252 646ft 64kts
02-Jan-18 18:04 32.729816 -117.174450 287 198ft 65kts
02-Jan-18 18:05 32.732980 -117.187246 286 18ft 15kts
02-Jan-18 18:06 32.734076 -117.187983 21 18ft 4kts
02-Jan-18 18:07 32.734588 -117.186411 16 18ft 0kts

Navigation Log

Ident Type
Flight plan parsing failed, navigation log unavailable